sensor_id;sensor_type;location;lat;lon;timestamp;P1;durP1;ratioP1;P2;durP2;ratioP2
14754;SDS011;7469;50.906;6.952;2023-03-03T00:01:03;24.03;;;14.07;;
14754;SDS011;7469;50.906;6.952;2023-03-03T00:03:31;23.27;;;13.60;;
14754;SDS011;7469;50.906;6.952;2023-03-03T00:06:00;20.97;;;14.53;;
14754;SDS011;7469;50.906;6.952;2023-03-03T00:08:30;22.23;;;13.63;;
14754;SDS011;7469;50.906;6.952;2023-03-03T00:10:58;23.10;;;14.27;;
14754;SDS011;7469;50.906;6.952;2023-03-03T00:13:29;23.87;;;14.27;;
14754;SDS011;7469;50.906;6.952;2023-03-03T00:16:04;23.37;;;13.30;;
14754;SDS011;7469;50.906;6.952;2023-03-03T00:18:41;26.77;;;14.50;;
14754;SDS011;7469;50.906;6.952;2023-03-03T00:21:18;21.57;;;14.33;;
14754;SDS011;7469;50.906;6.952;2023-03-03T00:23:53;23.97;;;14.30;;
14754;SDS011;7469;50.906;6.952;2023-03-03T00:26:22;25.00;;;14.53;;
14754;SDS011;7469;50.906;6.952;2023-03-03T00:28:55;25.20;;;14.90;;
14754;SDS011;7469;50.906;6.952;2023-03-03T00:31:26;23.23;;;14.10;;
14754;SDS011;7469;50.906;6.952;2023-03-03T00:33:59;24.67;;;14.57;;
14754;SDS011;7469;50.906;6.952;2023-03-03T00:36:46;24.67;;;14.53;;
14754;SDS011;7469;50.906;6.952;2023-03-03T00:39:21;29.43;;;15.83;;
14754;SDS011;7469;50.906;6.952;2023-03-03T00:41:53;23.87;;;13.93;;
14754;SDS011;7469;50.906;6.952;2023-03-03T00:44:30;24.67;;;14.77;;
14754;SDS011;7469;50.906;6.952;2023-03-03T00:47:13;25.43;;;14.43;;
14754;SDS011;7469;50.906;6.952;2023-03-03T00:49:58;24.10;;;13.57;;
14754;SDS011;7469;50.906;6.952;2023-03-03T00:53:05;27.23;;;13.97;;
14754;SDS011;7469;50.906;6.952;2023-03-03T00:55:38;22.73;;;14.23;;
14754;SDS011;7469;50.906;6.952;2023-03-03T00:58:06;25.53;;;15.27;;
14754;SDS011;7469;50.906;6.952;2023-03-03T01:00:36;24.27;;;15.17;;
14754;SDS011;7469;50.906;6.952;2023-03-03T01:03:05;30.07;;;14.67;;
14754;SDS011;7469;50.906;6.952;2023-03-03T01:05:35;25.37;;;15.10;;
14754;SDS011;7469;50.906;6.952;2023-03-03T01:08:03;25.17;;;16.43;;
14754;SDS011;7469;50.906;6.952;2023-03-03T01:10:32;26.20;;;15.67;;
14754;SDS011;7469;50.906;6.952;2023-03-03T01:13:04;28.67;;;15.37;;
14754;SDS011;7469;50.906;6.952;2023-03-03T01:15:33;26.63;;;15.53;;
14754;SDS011;7469;50.906;6.952;2023-03-03T01:18:01;26.53;;;16.23;;
14754;SDS011;7469;50.906;6.952;2023-03-03T01:20:29;27.97;;;16.50;;
14754;SDS011;7469;50.906;6.952;2023-03-03T01:22:57;26.33;;;15.63;;
14754;SDS011;7469;50.906;6.952;2023-03-03T01:25:26;26.57;;;15.53;;
14754;SDS011;7469;50.906;6.952;2023-03-03T01:27:54;33.07;;;16.07;;
14754;SDS011;7469;50.906;6.952;2023-03-03T01:30:25;31.40;;;17.23;;
14754;SDS011;7469;50.906;6.952;2023-03-03T01:32:53;26.87;;;16.43;;
14754;SDS011;7469;50.906;6.952;2023-03-03T01:35:21;34.60;;;16.30;;
14754;SDS011;7469;50.906;6.952;2023-03-03T01:37:50;27.80;;;15.60;;
14754;SDS011;7469;50.906;6.952;2023-03-03T01:40:20;27.83;;;16.20;;
14754;SDS011;7469;50.906;6.952;2023-03-03T01:42:49;33.23;;;17.33;;
14754;SDS011;7469;50.906;6.952;2023-03-03T01:45:18;28.67;;;16.47;;
14754;SDS011;7469;50.906;6.952;2023-03-03T01:47:53;26.93;;;15.90;;
14754;SDS011;7469;50.906;6.952;2023-03-03T01:50:27;31.43;;;17.43;;
14754;SDS011;7469;50.906;6.952;2023-03-03T01:53:01;29.80;;;17.97;;
14754;SDS011;7469;50.906;6.952;2023-03-03T01:55:32;30.20;;;17.17;;
14754;SDS011;7469;50.906;6.952;2023-03-03T01:58:03;32.20;;;19.07;;
14754;SDS011;7469;50.906;6.952;2023-03-03T02:00:35;29.87;;;18.20;;
14754;SDS011;7469;50.906;6.952;2023-03-03T02:03:08;31.57;;;17.03;;
14754;SDS011;7469;50.906;6.952;2023-03-03T02:05:36;28.97;;;17.80;;
14754;SDS011;7469;50.906;6.952;2023-03-03T02:08:07;30.50;;;17.37;;
14754;SDS011;7469;50.906;6.952;2023-03-03T02:10:38;32.30;;;18.60;;
14754;SDS011;7469;50.906;6.952;2023-03-03T02:13:06;31.20;;;18.10;;
14754;SDS011;7469;50.906;6.952;2023-03-03T02:15:34;30.70;;;16.83;;
14754;SDS011;7469;50.906;6.952;2023-03-03T02:18:03;31.60;;;19.00;;
14754;SDS011;7469;50.906;6.952;2023-03-03T02:20:40;30.97;;;17.67;;
14754;SDS011;7469;50.906;6.952;2023-03-03T02:23:17;32.70;;;18.17;;
14754;SDS011;7469;50.906;6.952;2023-03-03T02:25:51;32.90;;;18.33;;
14754;SDS011;7469;50.906;6.952;2023-03-03T02:28:34;33.10;;;17.93;;
14754;SDS011;7469;50.906;6.952;2023-03-03T02:31:05;30.30;;;18.53;;
14754;SDS011;7469;50.906;6.952;2023-03-03T02:33:38;33.63;;;18.57;;
14754;SDS011;7469;50.906;6.952;2023-03-03T02:36:08;33.53;;;18.13;;
14754;SDS011;7469;50.906;6.952;2023-03-03T02:38:39;32.90;;;17.60;;
14754;SDS011;7469;50.906;6.952;2023-03-03T02:41:14;33.70;;;17.87;;
14754;SDS011;7469;50.906;6.952;2023-03-03T02:43:49;30.47;;;16.97;;
14754;SDS011;7469;50.906;6.952;2023-03-03T02:46:22;32.77;;;17.27;;
14754;SDS011;7469;50.906;6.952;2023-03-03T02:48:50;28.07;;;16.67;;
14754;SDS011;7469;50.906;6.952;2023-03-03T02:51:18;32.67;;;18.17;;
14754;SDS011;7469;50.906;6.952;2023-03-03T02:53:46;30.13;;;17.60;;
14754;SDS011;7469;50.906;6.952;2023-03-03T02:56:16;34.57;;;18.73;;
14754;SDS011;7469;50.906;6.952;2023-03-03T02:58:44;32.87;;;17.20;;
14754;SDS011;7469;50.906;6.952;2023-03-03T03:01:12;31.07;;;18.13;;
14754;SDS011;7469;50.906;6.952;2023-03-03T03:03:40;30.33;;;17.73;;
14754;SDS011;7469;50.906;6.952;2023-03-03T03:06:08;36.13;;;18.43;;
14754;SDS011;7469;50.906;6.952;2023-03-03T03:08:36;35.10;;;17.57;;
14754;SDS011;7469;50.906;6.952;2023-03-03T03:11:04;30.13;;;16.37;;
14754;SDS011;7469;50.906;6.952;2023-03-03T03:13:34;31.47;;;17.27;;
14754;SDS011;7469;50.906;6.952;2023-03-03T03:16:02;33.43;;;17.77;;
14754;SDS011;7469;50.906;6.952;2023-03-03T03:18:30;31.70;;;17.30;;
14754;SDS011;7469;50.906;6.952;2023-03-03T03:21:04;34.63;;;17.13;;
14754;SDS011;7469;50.906;6.952;2023-03-03T03:23:33;32.43;;;16.10;;
14754;SDS011;7469;50.906;6.952;2023-03-03T03:26:02;32.40;;;17.23;;
14754;SDS011;7469;50.906;6.952;2023-03-03T03:28:30;31.90;;;17.00;;
14754;SDS011;7469;50.906;6.952;2023-03-03T03:30:59;31.03;;;17.17;;
14754;SDS011;7469;50.906;6.952;2023-03-03T03:33:28;31.23;;;17.00;;
14754;SDS011;7469;50.906;6.952;2023-03-03T03:35:56;27.73;;;16.17;;
14754;SDS011;7469;50.906;6.952;2023-03-03T03:38:25;32.33;;;17.07;;
14754;SDS011;7469;50.906;6.952;2023-03-03T03:40:54;32.60;;;17.97;;
14754;SDS011;7469;50.906;6.952;2023-03-03T03:43:23;31.93;;;16.83;;
14754;SDS011;7469;50.906;6.952;2023-03-03T03:45:51;31.43;;;16.67;;
14754;SDS011;7469;50.906;6.952;2023-03-03T03:48:20;34.53;;;17.53;;
14754;SDS011;7469;50.906;6.952;2023-03-03T03:50:49;34.43;;;18.03;;
14754;SDS011;7469;50.906;6.952;2023-03-03T03:53:17;32.13;;;17.23;;
14754;SDS011;7469;50.906;6.952;2023-03-03T03:55:45;34.90;;;18.23;;
14754;SDS011;7469;50.906;6.952;2023-03-03T03:58:13;34.23;;;17.03;;
14754;SDS011;7469;50.906;6.952;2023-03-03T04:00:43;33.17;;;16.77;;
14754;SDS011;7469;50.906;6.952;2023-03-03T04:03:12;33.83;;;17.17;;
14754;SDS011;7469;50.906;6.952;2023-03-03T04:05:42;33.77;;;17.13;;
14754;SDS011;7469;50.906;6.952;2023-03-03T04:08:10;34.07;;;18.43;;
14754;SDS011;7469;50.906;6.952;2023-03-03T04:10:38;33.83;;;17.03;;
14754;SDS011;7469;50.906;6.952;2023-03-03T04:13:06;34.90;;;17.43;;
14754;SDS011;7469;50.906;6.952;2023-03-03T04:15:34;29.43;;;16.87;;
14754;SDS011;7469;50.906;6.952;2023-03-03T04:18:02;29.30;;;16.17;;
14754;SDS011;7469;50.906;6.952;2023-03-03T04:20:30;26.80;;;15.93;;
14754;SDS011;7469;50.906;6.952;2023-03-03T04:23:00;31.27;;;16.17;;
14754;SDS011;7469;50.906;6.952;2023-03-03T04:25:28;32.23;;;16.73;;
14754;SDS011;7469;50.906;6.952;2023-03-03T04:27:56;28.87;;;16.60;;
14754;SDS011;7469;50.906;6.952;2023-03-03T04:30:23;35.83;;;17.33;;
14754;SDS011;7469;50.906;6.952;2023-03-03T04:32:52;33.13;;;17.00;;
14754;SDS011;7469;50.906;6.952;2023-03-03T04:35:20;33.57;;;17.77;;
14754;SDS011;7469;50.906;6.952;2023-03-03T04:37:48;31.87;;;17.73;;
14754;SDS011;7469;50.906;6.952;2023-03-03T04:40:17;32.43;;;16.53;;
14754;SDS011;7469;50.906;6.952;2023-03-03T04:42:45;31.97;;;17.90;;
14754;SDS011;7469;50.906;6.952;2023-03-03T04:45:13;35.00;;;18.13;;
14754;SDS011;7469;50.906;6.952;2023-03-03T04:47:42;28.30;;;15.60;;
14754;SDS011;7469;50.906;6.952;2023-03-03T04:50:10;32.43;;;16.80;;
14754;SDS011;7469;50.906;6.952;2023-03-03T04:52:38;28.83;;;16.00;;
14754;SDS011;7469;50.906;6.952;2023-03-03T04:55:07;32.10;;;16.63;;
14754;SDS011;7469;50.906;6.952;2023-03-03T04:57:37;34.63;;;17.67;;
14754;SDS011;7469;50.906;6.952;2023-03-03T05:00:05;35.30;;;17.43;;
14754;SDS011;7469;50.906;6.952;2023-03-03T05:02:34;32.03;;;17.53;;
14754;SDS011;7469;50.906;6.952;2023-03-03T05:05:02;33.70;;;17.63;;
14754;SDS011;7469;50.906;6.952;2023-03-03T05:07:31;33.90;;;18.63;;
14754;SDS011;7469;50.906;6.952;2023-03-03T05:09:59;34.07;;;18.33;;
14754;SDS011;7469;50.906;6.952;2023-03-03T05:12:27;34.10;;;17.73;;
14754;SDS011;7469;50.906;6.952;2023-03-03T05:14:56;35.63;;;18.17;;
14754;SDS011;7469;50.906;6.952;2023-03-03T05:17:24;29.77;;;17.47;;
14754;SDS011;7469;50.906;6.952;2023-03-03T05:19:52;33.07;;;18.47;;
14754;SDS011;7469;50.906;6.952;2023-03-03T05:22:22;29.03;;;17.10;;
14754;SDS011;7469;50.906;6.952;2023-03-03T05:24:51;32.07;;;17.47;;
14754;SDS011;7469;50.906;6.952;2023-03-03T05:27:19;30.67;;;16.60;;
14754;SDS011;7469;50.906;6.952;2023-03-03T05:29:47;34.27;;;17.53;;
14754;SDS011;7469;50.906;6.952;2023-03-03T05:32:17;34.00;;;17.80;;
14754;SDS011;7469;50.906;6.952;2023-03-03T05:34:48;29.20;;;16.20;;
14754;SDS011;7469;50.906;6.952;2023-03-03T05:37:17;31.93;;;16.60;;
14754;SDS011;7469;50.906;6.952;2023-03-03T05:39:45;26.83;;;15.53;;
14754;SDS011;7469;50.906;6.952;2023-03-03T05:42:13;29.53;;;17.33;;
14754;SDS011;7469;50.906;6.952;2023-03-03T05:44:41;31.77;;;17.30;;
14754;SDS011;7469;50.906;6.952;2023-03-03T05:47:09;33.17;;;16.80;;
14754;SDS011;7469;50.906;6.952;2023-03-03T05:49:39;25.73;;;15.27;;
14754;SDS011;7469;50.906;6.952;2023-03-03T05:52:07;26.73;;;16.03;;
14754;SDS011;7469;50.906;6.952;2023-03-03T05:54:35;32.60;;;17.57;;
14754;SDS011;7469;50.906;6.952;2023-03-03T05:57:03;30.40;;;16.33;;
14754;SDS011;7469;50.906;6.952;2023-03-03T05:59:31;31.17;;;17.17;;
14754;SDS011;7469;50.906;6.952;2023-03-03T06:01:58;33.13;;;17.87;;
14754;SDS011;7469;50.906;6.952;2023-03-03T06:04:26;30.37;;;16.20;;
14754;SDS011;7469;50.906;6.952;2023-03-03T06:06:56;30.10;;;16.40;;
14754;SDS011;7469;50.906;6.952;2023-03-03T06:09:24;26.63;;;15.37;;
14754;SDS011;7469;50.906;6.952;2023-03-03T06:11:52;28.00;;;15.43;;
14754;SDS011;7469;50.906;6.952;2023-03-03T06:14:21;27.67;;;15.57;;
14754;SDS011;7469;50.906;6.952;2023-03-03T06:16:52;26.37;;;14.57;;
14754;SDS011;7469;50.906;6.952;2023-03-03T06:19:20;25.43;;;14.23;;
14754;SDS011;7469;50.906;6.952;2023-03-03T06:21:48;25.33;;;14.67;;
14754;SDS011;7469;50.906;6.952;2023-03-03T06:24:17;28.80;;;15.00;;
14754;SDS011;7469;50.906;6.952;2023-03-03T06:26:45;25.23;;;14.93;;
14754;SDS011;7469;50.906;6.952;2023-03-03T06:29:13;26.63;;;15.07;;
14754;SDS011;7469;50.906;6.952;2023-03-03T06:31:41;30.03;;;16.57;;
14754;SDS011;7469;50.906;6.952;2023-03-03T06:34:10;29.60;;;16.13;;
14754;SDS011;7469;50.906;6.952;2023-03-03T06:36:37;26.43;;;14.93;;
14754;SDS011;7469;50.906;6.952;2023-03-03T06:39:05;29.73;;;15.90;;
14754;SDS011;7469;50.906;6.952;2023-03-03T06:41:35;32.43;;;17.90;;
14754;SDS011;7469;50.906;6.952;2023-03-03T06:44:03;32.47;;;17.97;;
14754;SDS011;7469;50.906;6.952;2023-03-03T06:46:31;29.23;;;17.33;;
14754;SDS011;7469;50.906;6.952;2023-03-03T06:48:59;31.27;;;18.50;;
14754;SDS011;7469;50.906;6.952;2023-03-03T06:51:29;32.70;;;17.20;;
14754;SDS011;7469;50.906;6.952;2023-03-03T06:54:00;30.63;;;17.57;;
14754;SDS011;7469;50.906;6.952;2023-03-03T06:56:34;30.80;;;17.20;;
14754;SDS011;7469;50.906;6.952;2023-03-03T06:59:05;28.47;;;17.13;;
14754;SDS011;7469;50.906;6.952;2023-03-03T07:01:39;28.33;;;16.30;;
14754;SDS011;7469;50.906;6.952;2023-03-03T07:04:13;31.50;;;17.20;;
14754;SDS011;7469;50.906;6.952;2023-03-03T07:06:48;33.67;;;17.33;;
14754;SDS011;7469;50.906;6.952;2023-03-03T07:09:18;32.47;;;18.43;;
14754;SDS011;7469;50.906;6.952;2023-03-03T07:11:50;34.37;;;16.87;;
14754;SDS011;7469;50.906;6.952;2023-03-03T07:14:19;31.13;;;16.73;;
14754;SDS011;7469;50.906;6.952;2023-03-03T07:16:50;28.43;;;16.50;;
14754;SDS011;7469;50.906;6.952;2023-03-03T07:19:23;31.50;;;17.27;;
14754;SDS011;7469;50.906;6.952;2023-03-03T07:21:56;32.20;;;17.87;;
14754;SDS011;7469;50.906;6.952;2023-03-03T07:24:25;32.97;;;18.07;;
14754;SDS011;7469;50.906;6.952;2023-03-03T07:26:58;31.10;;;18.10;;
14754;SDS011;7469;50.906;6.952;2023-03-03T07:29:27;31.30;;;17.20;;
14754;SDS011;7469;50.906;6.952;2023-03-03T07:31:56;31.40;;;17.70;;
14754;SDS011;7469;50.906;6.952;2023-03-03T07:34:26;31.20;;;16.80;;
14754;SDS011;7469;50.906;6.952;2023-03-03T07:37:05;34.47;;;17.87;;
14754;SDS011;7469;50.906;6.952;2023-03-03T07:39:40;29.87;;;17.27;;
14754;SDS011;7469;50.906;6.952;2023-03-03T07:42:16;32.37;;;18.27;;
14754;SDS011;7469;50.906;6.952;2023-03-03T07:44:49;27.73;;;15.77;;
14754;SDS011;7469;50.906;6.952;2023-03-03T07:47:19;31.10;;;16.27;;
14754;SDS011;7469;50.906;6.952;2023-03-03T07:49:50;29.53;;;15.87;;
14754;SDS011;7469;50.906;6.952;2023-03-03T07:52:23;28.03;;;15.03;;
14754;SDS011;7469;50.906;6.952;2023-03-03T07:54:55;26.77;;;15.17;;
14754;SDS011;7469;50.906;6.952;2023-03-03T07:57:28;27.87;;;15.87;;
14754;SDS011;7469;50.906;6.952;2023-03-03T08:00:08;26.80;;;15.13;;
14754;SDS011;7469;50.906;6.952;2023-03-03T08:03:15;27.77;;;15.27;;
14754;SDS011;7469;50.906;6.952;2023-03-03T08:05:45;27.37;;;14.70;;
14754;SDS011;7469;50.906;6.952;2023-03-03T08:08:23;28.00;;;15.07;;
14754;SDS011;7469;50.906;6.952;2023-03-03T08:10:56;31.57;;;15.10;;
14754;SDS011;7469;50.906;6.952;2023-03-03T08:13:28;25.17;;;14.60;;
14754;SDS011;7469;50.906;6.952;2023-03-03T08:16:17;27.23;;;14.73;;
14754;SDS011;7469;50.906;6.952;2023-03-03T08:18:52;26.10;;;14.27;;
14754;SDS011;7469;50.906;6.952;2023-03-03T08:21:21;22.80;;;13.10;;
14754;SDS011;7469;50.906;6.952;2023-03-03T08:23:50;23.17;;;13.60;;
14754;SDS011;7469;50.906;6.952;2023-03-03T08:26:19;27.90;;;14.20;;
14754;SDS011;7469;50.906;6.952;2023-03-03T08:28:49;24.27;;;13.03;;
14754;SDS011;7469;50.906;6.952;2023-03-03T08:31:18;22.23;;;13.43;;
14754;SDS011;7469;50.906;6.952;2023-03-03T08:34:05;25.27;;;13.80;;
14754;SDS011;7469;50.906;6.952;2023-03-03T08:36:34;22.93;;;12.80;;
14754;SDS011;7469;50.906;6.952;2023-03-03T08:39:02;22.40;;;12.60;;
14754;SDS011;7469;50.906;6.952;2023-03-03T08:41:31;23.53;;;12.90;;
14754;SDS011;7469;50.906;6.952;2023-03-03T08:44:00;20.27;;;12.70;;
14754;SDS011;7469;50.906;6.952;2023-03-03T08:46:28;26.63;;;13.53;;
14754;SDS011;7469;50.906;6.952;2023-03-03T08:48:56;28.23;;;15.37;;
14754;SDS011;7469;50.906;6.952;2023-03-03T08:51:24;24.83;;;12.87;;
14754;SDS011;7469;50.906;6.952;2023-03-03T08:53:52;23.13;;;13.00;;
14754;SDS011;7469;50.906;6.952;2023-03-03T08:56:21;23.80;;;14.00;;
14754;SDS011;7469;50.906;6.952;2023-03-03T08:58:49;28.10;;;16.37;;
14754;SDS011;7469;50.906;6.952;2023-03-03T09:01:29;31.00;;;17.87;;
14754;SDS011;7469;50.906;6.952;2023-03-03T09:03:58;33.40;;;18.50;;
14754;SDS011;7469;50.906;6.952;2023-03-03T09:06:28;34.40;;;18.23;;
14754;SDS011;7469;50.906;6.952;2023-03-03T09:08:56;36.53;;;19.07;;
14754;SDS011;7469;50.906;6.952;2023-03-03T09:11:25;33.70;;;19.50;;
14754;SDS011;7469;50.906;6.952;2023-03-03T09:13:56;34.43;;;18.90;;
14754;SDS011;7469;50.906;6.952;2023-03-03T09:16:30;34.33;;;20.10;;
14754;SDS011;7469;50.906;6.952;2023-03-03T09:19:13;32.13;;;18.33;;
14754;SDS011;7469;50.906;6.952;2023-03-03T09:21:45;39.27;;;20.73;;
14754;SDS011;7469;50.906;6.952;2023-03-03T09:24:17;35.10;;;20.33;;
14754;SDS011;7469;50.906;6.952;2023-03-03T09:26:50;32.10;;;19.87;;
14754;SDS011;7469;50.906;6.952;2023-03-03T09:29:23;33.83;;;20.60;;
14754;SDS011;7469;50.906;6.952;2023-03-03T09:31:56;33.17;;;19.83;;
14754;SDS011;7469;50.906;6.952;2023-03-03T09:34:29;33.97;;;19.63;;
14754;SDS011;7469;50.906;6.952;2023-03-03T09:37:14;37.50;;;19.70;;
14754;SDS011;7469;50.906;6.952;2023-03-03T09:39:47;38.50;;;20.83;;
14754;SDS011;7469;50.906;6.952;2023-03-03T09:42:26;31.40;;;19.17;;
14754;SDS011;7469;50.906;6.952;2023-03-03T09:48:43;31.77;;;18.83;;
14754;SDS011;7469;50.906;6.952;2023-03-03T09:51:22;32.87;;;19.63;;
14754;SDS011;7469;50.906;6.952;2023-03-03T09:54:11;30.07;;;18.43;;
14754;SDS011;7469;50.906;6.952;2023-03-03T09:56:53;32.47;;;19.43;;
14754;SDS011;7469;50.906;6.952;2023-03-03T09:59:35;34.13;;;17.97;;
14754;SDS011;7469;50.906;6.952;2023-03-03T10:02:29;30.87;;;18.10;;
14754;SDS011;7469;50.906;6.952;2023-03-03T10:05:09;31.40;;;18.30;;
14754;SDS011;7469;50.906;6.952;2023-03-03T10:07:46;29.80;;;18.53;;
14754;SDS011;7469;50.906;6.952;2023-03-03T10:10:28;34.30;;;19.70;;
14754;SDS011;7469;50.906;6.952;2023-03-03T10:13:25;30.93;;;17.83;;
14754;SDS011;7469;50.906;6.952;2023-03-03T10:16:11;31.10;;;17.67;;
14754;SDS011;7469;50.906;6.952;2023-03-03T10:18:59;31.27;;;18.60;;
14754;SDS011;7469;50.906;6.952;2023-03-03T10:21:32;32.07;;;17.87;;
14754;SDS011;7469;50.906;6.952;2023-03-03T10:24:05;33.30;;;18.40;;
14754;SDS011;7469;50.906;6.952;2023-03-03T10:27:01;33.03;;;18.87;;
14754;SDS011;7469;50.906;6.952;2023-03-03T10:29:41;32.70;;;18.07;;
14754;SDS011;7469;50.906;6.952;2023-03-03T10:32:22;33.47;;;17.73;;
14754;SDS011;7469;50.906;6.952;2023-03-03T10:35:18;33.20;;;17.90;;
14754;SDS011;7469;50.906;6.952;2023-03-03T10:38:04;31.87;;;17.83;;
14754;SDS011;7469;50.906;6.952;2023-03-03T10:40:44;25.90;;;14.70;;
14754;SDS011;7469;50.906;6.952;2023-03-03T10:43:23;28.60;;;16.63;;
14754;SDS011;7469;50.906;6.952;2023-03-03T10:46:14;33.80;;;18.90;;
14754;SDS011;7469;50.906;6.952;2023-03-03T10:48:53;36.63;;;19.10;;
14754;SDS011;7469;50.906;6.952;2023-03-03T10:51:31;38.77;;;19.17;;
14754;SDS011;7469;50.906;6.952;2023-03-03T10:54:11;37.27;;;19.53;;
14754;SDS011;7469;50.906;6.952;2023-03-03T10:56:49;35.17;;;19.60;;
14754;SDS011;7469;50.906;6.952;2023-03-03T10:59:30;37.47;;;19.60;;
14754;SDS011;7469;50.906;6.952;2023-03-03T11:02:06;40.00;;;20.60;;
14754;SDS011;7469;50.906;6.952;2023-03-03T11:04:47;36.47;;;19.70;;
14754;SDS011;7469;50.906;6.952;2023-03-03T11:07:30;34.10;;;19.83;;
14754;SDS011;7469;50.906;6.952;2023-03-03T11:10:06;39.53;;;21.53;;
14754;SDS011;7469;50.906;6.952;2023-03-03T11:12:47;34.73;;;19.47;;
14754;SDS011;7469;50.906;6.952;2023-03-03T11:15:34;35.63;;;20.03;;
14754;SDS011;7469;50.906;6.952;2023-03-03T11:21:04;36.37;;;20.50;;
14754;SDS011;7469;50.906;6.952;2023-03-03T11:24:01;36.23;;;20.03;;
14754;SDS011;7469;50.906;6.952;2023-03-03T11:26:47;35.80;;;19.97;;
14754;SDS011;7469;50.906;6.952;2023-03-03T11:29:26;34.73;;;19.33;;
14754;SDS011;7469;50.906;6.952;2023-03-03T11:32:05;36.03;;;19.27;;
14754;SDS011;7469;50.906;6.952;2023-03-03T11:34:47;34.27;;;19.53;;
14754;SDS011;7469;50.906;6.952;2023-03-03T11:37:23;35.90;;;19.17;;
14754;SDS011;7469;50.906;6.952;2023-03-03T11:39:56;40.37;;;21.90;;
14754;SDS011;7469;50.906;6.952;2023-03-03T11:42:31;37.60;;;21.27;;
14754;SDS011;7469;50.906;6.952;2023-03-03T11:45:10;34.47;;;18.97;;
14754;SDS011;7469;50.906;6.952;2023-03-03T11:47:45;36.00;;;20.37;;
14754;SDS011;7469;50.906;6.952;2023-03-03T11:50:19;34.57;;;20.00;;
14754;SDS011;7469;50.906;6.952;2023-03-03T11:52:50;37.60;;;20.40;;
14754;SDS011;7469;50.906;6.952;2023-03-03T11:55:26;35.33;;;19.83;;
14754;SDS011;7469;50.906;6.952;2023-03-03T11:58:07;34.50;;;19.87;;
14754;SDS011;7469;50.906;6.952;2023-03-03T12:00:40;38.23;;;20.53;;
14754;SDS011;7469;50.906;6.952;2023-03-03T12:03:15;34.53;;;20.03;;
14754;SDS011;7469;50.906;6.952;2023-03-03T12:06:02;36.50;;;20.53;;
14754;SDS011;7469;50.906;6.952;2023-03-03T12:08:42;33.50;;;19.63;;
14754;SDS011;7469;50.906;6.952;2023-03-03T12:11:23;35.23;;;19.93;;
14754;SDS011;7469;50.906;6.952;2023-03-03T12:13:57;34.23;;;19.67;;
14754;SDS011;7469;50.906;6.952;2023-03-03T12:16:33;36.23;;;19.90;;
14754;SDS011;7469;50.906;6.952;2023-03-03T12:22:05;43.07;;;20.63;;
14754;SDS011;7469;50.906;6.952;2023-03-03T12:24:43;34.90;;;19.80;;
14754;SDS011;7469;50.906;6.952;2023-03-03T12:27:25;40.47;;;21.30;;
14754;SDS011;7469;50.906;6.952;2023-03-03T12:30:05;41.07;;;20.13;;
14754;SDS011;7469;50.906;6.952;2023-03-03T12:32:47;33.47;;;19.67;;
14754;SDS011;7469;50.906;6.952;2023-03-03T12:35:25;39.07;;;20.30;;
14754;SDS011;7469;50.906;6.952;2023-03-03T12:38:01;34.43;;;19.87;;
14754;SDS011;7469;50.906;6.952;2023-03-03T12:40:37;37.40;;;20.53;;
14754;SDS011;7469;50.906;6.952;2023-03-03T12:43:14;38.53;;;21.17;;
14754;SDS011;7469;50.906;6.952;2023-03-03T12:45:53;36.60;;;20.80;;
14754;SDS011;7469;50.906;6.952;2023-03-03T12:48:27;39.00;;;21.37;;
14754;SDS011;7469;50.906;6.952;2023-03-03T12:51:03;34.80;;;19.97;;
14754;SDS011;7469;50.906;6.952;2023-03-03T12:53:46;33.93;;;18.53;;
14754;SDS011;7469;50.906;6.952;2023-03-03T12:56:24;33.77;;;18.07;;
14754;SDS011;7469;50.906;6.952;2023-03-03T12:58:59;28.93;;;17.63;;
14754;SDS011;7469;50.906;6.952;2023-03-03T13:01:36;30.17;;;17.93;;
14754;SDS011;7469;50.906;6.952;2023-03-03T13:04:18;29.77;;;17.90;;
14754;SDS011;7469;50.906;6.952;2023-03-03T13:06:58;28.20;;;16.63;;
14754;SDS011;7469;50.906;6.952;2023-03-03T13:09:33;28.90;;;16.63;;
14754;SDS011;7469;50.906;6.952;2023-03-03T13:12:19;30.60;;;16.90;;
14754;SDS011;7469;50.906;6.952;2023-03-03T13:14:59;28.03;;;17.20;;
14754;SDS011;7469;50.906;6.952;2023-03-03T13:17:34;26.23;;;15.50;;
14754;SDS011;7469;50.906;6.952;2023-03-03T13:20:11;28.37;;;15.83;;
14754;SDS011;7469;50.906;6.952;2023-03-03T13:22:48;28.67;;;16.00;;
14754;SDS011;7469;50.906;6.952;2023-03-03T13:25:30;28.30;;;16.00;;
14754;SDS011;7469;50.906;6.952;2023-03-03T13:28:06;29.93;;;16.47;;
14754;SDS011;7469;50.906;6.952;2023-03-03T13:30:42;28.87;;;16.20;;
14754;SDS011;7469;50.906;6.952;2023-03-03T13:33:16;34.40;;;17.60;;
14754;SDS011;7469;50.906;6.952;2023-03-03T13:35:52;27.40;;;16.30;;
14754;SDS011;7469;50.906;6.952;2023-03-03T13:38:24;26.97;;;14.60;;
14754;SDS011;7469;50.906;6.952;2023-03-03T13:40:57;25.70;;;15.13;;
14754;SDS011;7469;50.906;6.952;2023-03-03T13:43:32;30.73;;;16.27;;
14754;SDS011;7469;50.906;6.952;2023-03-03T13:46:08;35.10;;;17.00;;
14754;SDS011;7469;50.906;6.952;2023-03-03T13:48:46;31.47;;;17.70;;
14754;SDS011;7469;50.906;6.952;2023-03-03T13:51:36;31.03;;;17.87;;
14754;SDS011;7469;50.906;6.952;2023-03-03T13:54:15;30.97;;;15.43;;
14754;SDS011;7469;50.906;6.952;2023-03-03T13:59:45;32.57;;;17.37;;
14754;SDS011;7469;50.906;6.952;2023-03-03T14:02:31;33.60;;;17.23;;
14754;SDS011;7469;50.906;6.952;2023-03-03T14:05:15;34.00;;;17.60;;
14754;SDS011;7469;50.906;6.952;2023-03-03T14:07:50;36.93;;;18.30;;
14754;SDS011;7469;50.906;6.952;2023-03-03T14:10:25;33.80;;;17.87;;
14754;SDS011;7469;50.906;6.952;2023-03-03T14:12:59;42.33;;;21.87;;
14754;SDS011;7469;50.906;6.952;2023-03-03T14:15:32;43.70;;;21.77;;
14754;SDS011;7469;50.906;6.952;2023-03-03T14:18:17;47.03;;;20.87;;
14754;SDS011;7469;50.906;6.952;2023-03-03T14:20:52;41.00;;;20.47;;
14754;SDS011;7469;50.906;6.952;2023-03-03T14:23:24;46.43;;;22.80;;
14754;SDS011;7469;50.906;6.952;2023-03-03T14:25:57;44.90;;;22.17;;
14754;SDS011;7469;50.906;6.952;2023-03-03T14:28:36;42.03;;;20.47;;
14754;SDS011;7469;50.906;6.952;2023-03-03T14:31:14;48.40;;;22.73;;
14754;SDS011;7469;50.906;6.952;2023-03-03T14:33:45;45.20;;;21.67;;
14754;SDS011;7469;50.906;6.952;2023-03-03T14:36:27;41.80;;;20.23;;
14754;SDS011;7469;50.906;6.952;2023-03-03T14:38:58;40.27;;;19.63;;
14754;SDS011;7469;50.906;6.952;2023-03-03T14:41:34;38.57;;;18.97;;
14754;SDS011;7469;50.906;6.952;2023-03-03T14:44:20;35.93;;;18.43;;
14754;SDS011;7469;50.906;6.952;2023-03-03T14:47:10;41.57;;;21.23;;
14754;SDS011;7469;50.906;6.952;2023-03-03T14:49:47;40.30;;;19.70;;
14754;SDS011;7469;50.906;6.952;2023-03-03T14:52:25;45.40;;;22.00;;
14754;SDS011;7469;50.906;6.952;2023-03-03T14:54:55;49.23;;;22.90;;
14754;SDS011;7469;50.906;6.952;2023-03-03T14:57:37;42.90;;;21.63;;
14754;SDS011;7469;50.906;6.952;2023-03-03T15:03:01;44.23;;;21.47;;
14754;SDS011;7469;50.906;6.952;2023-03-03T15:05:47;48.30;;;23.13;;
14754;SDS011;7469;50.906;6.952;2023-03-03T15:08:22;45.83;;;20.70;;
14754;SDS011;7469;50.906;6.952;2023-03-03T15:11:10;48.43;;;21.40;;
14754;SDS011;7469;50.906;6.952;2023-03-03T15:13:40;43.03;;;21.20;;
14754;SDS011;7469;50.906;6.952;2023-03-03T15:16:09;43.90;;;20.83;;
14754;SDS011;7469;50.906;6.952;2023-03-03T15:18:49;43.00;;;21.47;;
14754;SDS011;7469;50.906;6.952;2023-03-03T15:21:37;47.27;;;20.60;;
14754;SDS011;7469;50.906;6.952;2023-03-03T15:24:14;44.33;;;21.20;;
14754;SDS011;7469;50.906;6.952;2023-03-03T15:26:48;39.83;;;18.13;;